Time;durP1;ratioP1;P1;durP2;ratioP2;P2;SDS_P1;SDS_P2;PMS_P1;PMS_P2;Temp;Humidity;BMP_temperature;BMP_pressure;BME280_temperature;BME280_humidity;BME280_pressure;Samples;Min_cycle;Max_cycle;Signal;HPM_P1;HPM_P2
2021/12/07 00:01:31;;;;;;;46.58;27.60;;;2.20;99.90;;;;;;5041857;28;20037;-82
2021/12/07 00:03:57;;;;;;;46.30;28.75;;;2.20;99.90;;;;;;5045278;28;20095;-83
2021/12/07 00:06:23;;;;;;;46.42;27.70;;;2.10;99.90;;;;;;5061470;28;20024;-82
2021/12/07 00:08:54;;;;;;;45.38;26.42;;;2.10;99.90;;;;;;5060437;28;20451;-82
2021/12/07 00:11:21;;;;;;;49.38;29.52;;;2.10;99.90;;;;;;5021458;28;20033;-82
2021/12/07 00:13:47;;;;;;;48.35;27.50;;;2.10;99.90;;;;;;5042085;28;20036;-83
2021/12/07 00:16:13;;;;;;;46.58;27.10;;;2.00;99.90;;;;;;5053739;28;20032;-82
2021/12/07 00:18:40;;;;;;;45.10;26.92;;;2.00;99.90;;;;;;5042520;28;20106;-82
2021/12/07 00:21:10;;;;;;;48.67;27.15;;;2.10;99.90;;;;;;5041996;28;20029;-82
2021/12/07 00:23:36;;;;;;;43.50;27.17;;;2.10;99.90;;;;;;5045108;28;20044;-84
2021/12/07 00:26:03;;;;;;;45.95;26.25;;;2.10;99.90;;;;;;5034272;28;20072;-83
2021/12/07 00:28:32;;;;;;;43.92;26.33;;;2.10;99.90;;;;;;5035355;28;20021;-84
2021/12/07 00:31:09;;;;;;;45.58;27.08;;;2.00;99.90;;;;;;5037333;28;20029;-81
2021/12/07 00:33:43;;;;;;;51.28;29.55;;;2.10;99.90;;;;;;5042028;28;20170;-83
2021/12/07 00:36:09;;;;;;;40.88;25.52;;;2.00;99.90;;;;;;5041943;28;20040;-83
2021/12/07 00:38:35;;;;;;;43.28;27.02;;;2.10;99.90;;;;;;5058361;28;20041;-83
2021/12/07 00:41:02;;;;;;;40.35;25.90;;;2.10;99.90;;;;;;5051336;28;20037;-82
2021/12/07 00:43:29;;;;;;;42.35;26.77;;;2.10;99.90;;;;;;5035618;28;20040;-82
2021/12/07 00:45:57;;;;;;;44.45;26.45;;;2.10;99.90;;;;;;5037813;28;20093;-82
2021/12/07 00:48:24;;;;;;;46.00;25.80;;;2.10;99.90;;;;;;5062905;28;20070;-84
2021/12/07 00:50:50;;;;;;;41.67;25.42;;;2.10;99.90;;;;;;5033225;28;20033;-82
2021/12/07 00:53:16;;;;;;;41.92;27.50;;;2.10;99.90;;;;;;5028119;28;20435;-84
2021/12/07 00:55:47;;;;;;;42.25;25.00;;;2.10;99.90;;;;;;5038940;28;20029;-82
2021/12/07 00:58:22;;;;;;;37.25;24.23;;;2.00;99.90;;;;;;5025669;28;20078;-84
2021/12/07 01:00:59;;;;;;;39.00;24.38;;;2.00;99.90;;;;;;5023654;28;20121;-84
2021/12/07 01:03:27;;;;;;;38.50;23.95;;;2.00;99.90;;;;;;5054825;28;20088;-85
2021/12/07 01:06:04;;;;;;;40.33;24.70;;;2.00;99.90;;;;;;5042092;28;20032;-84
2021/12/07 01:25:05;;;;;;;43.25;25.67;;;1.80;99.90;;;;;;5070032;28;20029;-81
2021/12/07 01:27:31;;;;;;;40.10;23.92;;;1.90;99.90;;;;;;5053030;28;20116;-82
2021/12/07 01:30:20;;;;;;;42.97;25.40;;;1.90;99.90;;;;;;5050722;28;20036;-82
2021/12/07 01:38:37;;;;;;;42.70;25.15;;;1.80;99.90;;;;;;5056867;28;20071;-81
2021/12/07 01:41:05;;;;;;;43.03;25.95;;;1.90;99.90;;;;;;5043954;28;20124;-82
2021/12/07 01:46:40;;;;;;;40.88;25.13;;;1.80;99.90;;;;;;5058286;28;20400;-81
2021/12/07 01:59:54;;;;;;;45.30;25.98;;;1.90;99.90;;;;;;5058690;28;20033;-85
2021/12/07 02:02:22;;;;;;;38.90;24.02;;;1.90;99.90;;;;;;5039837;28;20039;-85
2021/12/07 02:04:48;;;;;;;40.08;24.60;;;1.90;99.90;;;;;;5041002;28;20034;-83
2021/12/07 02:07:14;;;;;;;46.35;26.40;;;1.80;99.90;;;;;;5037173;28;20048;-84
2021/12/07 02:09:44;;;;;;;40.47;24.77;;;1.70;99.90;;;;;;5051046;28;20025;-84
2021/12/07 02:12:12;;;;;;;40.17;24.40;;;1.60;99.90;;;;;;5045458;28;20029;-83
2021/12/07 02:14:38;;;;;;;40.72;24.95;;;1.60;99.90;;;;;;5053116;28;20055;-84
2021/12/07 02:17:14;;;;;;;39.95;23.63;;;1.60;99.90;;;;;;5074726;28;20039;-83
2021/12/07 02:19:39;;;;;;;42.78;25.30;;;1.60;99.90;;;;;;5057879;28;20033;-83
2021/12/07 02:22:06;;;;;;;43.70;25.30;;;1.60;99.90;;;;;;5048442;28;20047;-82
2021/12/07 02:24:32;;;;;;;38.60;24.10;;;1.70;99.90;;;;;;5038960;28;20124;-81
2021/12/07 02:26:59;;;;;;;40.65;24.95;;;1.70;99.90;;;;;;5056799;28;20025;-81
2021/12/07 02:29:27;;;;;;;43.72;25.45;;;1.70;99.90;;;;;;5043133;28;20032;-83
2021/12/07 02:31:58;;;;;;;38.40;24.30;;;1.70;99.90;;;;;;5045486;28;20047;-84
2021/12/07 02:34:24;;;;;;;42.17;25.80;;;1.60;99.90;;;;;;5043657;28;20029;-82
2021/12/07 02:36:53;;;;;;;41.03;25.55;;;1.50;99.90;;;;;;5038209;28;20044;-82
2021/12/07 02:39:29;;;;;;;37.25;24.13;;;1.60;99.90;;;;;;5038790;28;20033;-81
2021/12/07 02:41:55;;;;;;;41.67;25.83;;;1.60;99.90;;;;;;5037107;28;20026;-81
2021/12/07 02:44:20;;;;;;;41.72;24.73;;;1.50;99.90;;;;;;5036647;28;20068;-82
2021/12/07 02:46:46;;;;;;;43.70;26.08;;;1.60;99.90;;;;;;5035757;28;20033;-82
2021/12/07 02:49:12;;;;;;;37.95;23.60;;;1.60;99.90;;;;;;5037449;28;20064;-82
2021/12/07 02:51:37;;;;;;;40.45;25.80;;;1.60;99.90;;;;;;5037625;28;20029;-86
2021/12/07 02:54:03;;;;;;;37.15;23.95;;;1.60;99.90;;;;;;5037401;28;20037;-84
2021/12/07 02:56:29;;;;;;;40.25;23.80;;;1.70;99.90;;;;;;5037044;28;20504;-85
2021/12/07 02:58:59;;;;;;;38.35;24.52;;;1.80;99.90;;;;;;5037406;28;20041;-85
2021/12/07 03:01:30;;;;;;;43.90;23.77;;;1.70;99.90;;;;;;5036769;28;20034;-84
2021/12/07 03:04:08;;;;;;;38.20;24.00;;;1.60;99.90;;;;;;5034950;28;20036;-84
2021/12/07 03:07:13;;;;;;;41.50;24.38;;;1.60;99.90;;;;;;5037118;28;20120;-84
2021/12/07 03:26:03;;;;;;;37.65;23.95;;;1.60;99.90;;;;;;5057566;28;20021;-82
2021/12/07 03:28:32;;;;;;;38.53;23.58;;;1.50;99.90;;;;;;5024789;28;20037;-81
2021/12/07 03:30:58;;;;;;;43.92;25.33;;;1.50;99.90;;;;;;5025523;28;20434;-81
2021/12/07 03:33:24;;;;;;;41.78;23.77;;;1.60;99.90;;;;;;5024761;28;20043;-82
2021/12/07 03:35:50;;;;;;;39.85;24.83;;;1.70;99.90;;;;;;5023843;28;20104;-81
2021/12/07 03:38:16;;;;;;;38.45;23.80;;;1.70;99.90;;;;;;5040479;28;20032;-81
2021/12/07 03:40:41;;;;;;;39.15;26.02;;;1.80;99.90;;;;;;5023128;28;20369;-82
2021/12/07 03:43:07;;;;;;;37.70;24.35;;;1.80;99.90;;;;;;5021874;28;20035;-81
2021/12/07 03:45:35;;;;;;;38.55;24.83;;;1.80;99.90;;;;;;5022081;28;20386;-82
2021/12/07 03:48:02;;;;;;;40.33;24.67;;;1.80;99.90;;;;;;5022189;28;20033;-81
2021/12/07 03:50:28;;;;;;;39.03;24.27;;;1.80;99.90;;;;;;5023447;28;20040;-81
2021/12/07 03:52:54;;;;;;;39.95;23.77;;;1.90;99.90;;;;;;5055424;28;20054;-81
2021/12/07 03:55:21;;;;;;;37.00;23.40;;;1.80;99.90;;;;;;5022218;28;20128;-83
2021/12/07 03:57:47;;;;;;;38.55;23.92;;;1.80;99.90;;;;;;5021554;28;20079;-82
2021/12/07 04:00:18;;;;;;;38.33;24.17;;;1.90;99.90;;;;;;5022222;28;20096;-83
2021/12/07 04:02:44;;;;;;;36.75;23.33;;;2.00;99.90;;;;;;5037832;28;20040;-82
2021/12/07 04:05:14;;;;;;;39.55;23.92;;;2.00;99.90;;;;;;5037997;28;20032;-81
2021/12/07 04:07:42;;;;;;;36.28;23.80;;;2.00;99.90;;;;;;5038303;28;20196;-81
2021/12/07 04:10:10;;;;;;;34.42;22.52;;;1.90;99.90;;;;;;5024182;28;20033;-81
2021/12/07 04:12:36;;;;;;;33.30;23.75;;;1.90;99.90;;;;;;5055324;28;20075;-81
2021/12/07 04:15:07;;;;;;;35.72;23.42;;;1.90;99.90;;;;;;5038637;28;20037;-80
2021/12/07 04:17:34;;;;;;;33.20;22.27;;;1.90;99.90;;;;;;5039269;28;20025;-81
2021/12/07 04:20:00;;;;;;;36.55;22.45;;;2.00;99.90;;;;;;5055753;28;20119;-82
2021/12/07 04:22:26;;;;;;;34.20;22.15;;;2.00;99.90;;;;;;5037945;28;20037;-81
2021/12/07 04:24:51;;;;;;;31.10;20.92;;;2.00;99.90;;;;;;5038608;28;20477;-81
2021/12/07 04:27:19;;;;;;;32.50;22.50;;;2.00;99.90;;;;;;5023399;28;20040;-81
2021/12/07 04:29:45;;;;;;;33.70;22.98;;;2.00;99.90;;;;;;5022826;28;20065;-81
2021/12/07 04:32:11;;;;;;;36.60;23.15;;;2.00;99.90;;;;;;5022418;28;20548;-81
2021/12/07 04:34:37;;;;;;;34.05;23.73;;;2.00;99.90;;;;;;5025211;28;20132;-81
2021/12/07 04:37:03;;;;;;;36.72;23.50;;;1.90;99.90;;;;;;5041499;28;20025;-82
2021/12/07 04:39:29;;;;;;;33.10;22.08;;;2.00;99.90;;;;;;5041625;28;20040;-82
2021/12/07 04:41:54;;;;;;;32.88;21.83;;;2.00;99.90;;;;;;5041719;28;20064;-82
2021/12/07 04:44:22;;;;;;;33.45;21.40;;;2.10;99.90;;;;;;5040941;28;20035;-81
2021/12/07 04:57:39;;;;;;;35.25;23.92;;;2.00;99.90;;;;;;5059887;28;20029;-82
2021/12/07 05:00:10;;;;;;;38.13;23.08;;;2.00;99.90;;;;;;5043109;28;20029;-81
2021/12/07 05:02:38;;;;;;;34.50;23.35;;;1.90;99.90;;;;;;5042262;28;20500;-81
2021/12/07 05:05:04;;;;;;;37.65;23.73;;;2.00;99.90;;;;;;5042750;28;20087;-83
2021/12/07 05:07:37;;;;;;;33.97;21.75;;;1.90;99.90;;;;;;5037937;28;20093;-84
2021/12/07 05:13:25;;;;;;;31.85;21.08;;;1.90;99.90;;;;;;5039698;28;20041;-83
2021/12/07 05:15:59;;;;;;;38.53;24.00;;;1.90;99.90;;;;;;5036392;28;20501;-84
2021/12/07 05:40:12;;;;;;;37.08;22.08;;;2.00;99.90;;;;;;5037818;28;20030;-85
2021/12/07 05:42:39;;;;;;;40.47;21.92;;;2.00;99.90;;;;;;5038984;28;20037;-84
2021/12/07 05:45:08;;;;;;;34.35;22.38;;;2.00;99.90;;;;;;5023157;28;20040;-84
2021/12/07 05:47:34;;;;;;;31.33;20.73;;;2.00;99.90;;;;;;5041396;28;20037;-85
2021/12/07 05:50:00;;;;;;;31.08;21.63;;;2.10;99.90;;;;;;5050135;28;20067;-85
2021/12/07 05:52:26;;;;;;;35.47;21.92;;;2.10;99.90;;;;;;5061208;28;20024;-85
2021/12/07 05:54:52;;;;;;;30.55;20.73;;;2.00;99.90;;;;;;5061546;28;20035;-85
2021/12/07 05:57:17;;;;;;;32.80;22.30;;;2.00;99.90;;;;;;5061415;28;20108;-84
2021/12/07 05:59:43;;;;;;;34.53;20.52;;;2.10;99.90;;;;;;5044274;28;20123;-85
2021/12/07 06:02:09;;;;;;;31.42;21.10;;;2.10;99.90;;;;;;5061877;28;20082;-84
2021/12/07 06:04:34;;;;;;;31.73;19.63;;;2.20;99.90;;;;;;5060772;28;20028;-84
2021/12/07 06:07:00;;;;;;;29.50;19.67;;;2.20;99.90;;;;;;5044051;28;20060;-85
2021/12/07 06:09:26;;;;;;;29.17;20.70;;;2.20;99.90;;;;;;5044410;28;20029;-83
2021/12/07 06:11:53;;;;;;;35.95;20.25;;;2.30;99.90;;;;;;5048880;28;20082;-84
2021/12/07 06:14:29;;;;;;;35.75;21.25;;;2.30;99.90;;;;;;5061569;28;20083;-84
2021/12/07 06:16:55;;;;;;;31.60;20.75;;;2.30;99.90;;;;;;5046655;28;20452;-84
2021/12/07 06:19:21;;;;;;;32.95;21.30;;;2.20;99.90;;;;;;5066508;28;20085;-84
2021/12/07 06:21:46;;;;;;;29.42;19.73;;;2.20;99.90;;;;;;5047648;28;20104;-83
2021/12/07 06:24:12;;;;;;;31.88;19.67;;;2.20;99.90;;;;;;5042827;28;20457;-84
2021/12/07 06:26:38;;;;;;;35.20;21.58;;;2.20;99.90;;;;;;5041758;28;20068;-85
2021/12/07 06:29:04;;;;;;;32.33;19.67;;;2.20;99.90;;;;;;5042911;28;20029;-83
2021/12/07 06:31:29;;;;;;;30.02;21.00;;;2.20;99.90;;;;;;5042879;28;20041;-85
2021/12/07 06:33:55;;;;;;;35.05;20.48;;;2.20;99.90;;;;;;5042312;28;20064;-82
2021/12/07 06:36:21;;;;;;;30.92;19.90;;;2.20;99.90;;;;;;5044011;28;20040;-82
2021/12/07 06:38:47;;;;;;;32.28;21.60;;;2.20;99.90;;;;;;5061767;28;20033;-82
2021/12/07 06:41:13;;;;;;;31.70;20.25;;;2.20;99.90;;;;;;5059609;28;20059;-83
2021/12/07 06:43:40;;;;;;;39.63;19.50;;;2.20;99.90;;;;;;5042250;28;20171;-84
2021/12/07 06:46:06;;;;;;;32.97;18.88;;;2.20;99.90;;;;;;5046176;28;20107;-84
2021/12/07 06:48:31;;;;;;;31.58;20.17;;;2.20;99.90;;;;;;5043836;28;20342;-85
2021/12/07 06:50:58;;;;;;;32.60;19.98;;;2.30;99.90;;;;;;5043935;28;20040;-85
2021/12/07 06:53:23;;;;;;;29.98;18.95;;;2.20;99.90;;;;;;5077884;28;20039;-80
2021/12/07 06:55:49;;;;;;;32.28;20.00;;;2.30;99.90;;;;;;5075485;28;20432;-81
2021/12/07 06:58:15;;;;;;;36.80;22.65;;;2.30;99.90;;;;;;5042818;28;20040;-81
2021/12/07 07:00:41;;;;;;;28.23;19.45;;;2.40;99.90;;;;;;5054194;28;20082;-82
2021/12/07 07:03:07;;;;;;;29.88;18.70;;;2.50;99.90;;;;;;5031369;28;20119;-82
2021/12/07 07:05:32;;;;;;;30.02;18.63;;;2.50;99.90;;;;;;5043718;28;20029;-82
2021/12/07 07:07:58;;;;;;;28.25;18.45;;;2.60;99.90;;;;;;5037582;28;20030;-83
2021/12/07 07:10:24;;;;;;;29.50;19.77;;;2.60;99.90;;;;;;5037290;28;20103;-82
2021/12/07 07:12:52;;;;;;;29.23;18.60;;;2.70;99.90;;;;;;5027424;28;20540;-83
2021/12/07 07:15:18;;;;;;;32.05;19.27;;;2.70;99.90;;;;;;5029847;28;20029;-81
2021/12/07 07:17:44;;;;;;;25.17;17.60;;;2.70;99.90;;;;;;5038049;28;20059;-82
2021/12/07 07:20:13;;;;;;;26.27;17.33;;;2.70;99.90;;;;;;5049681;28;20116;-82
2021/12/07 07:22:40;;;;;;;25.90;18.42;;;2.80;99.90;;;;;;5041646;28;20068;-82
2021/12/07 07:25:07;;;;;;;25.75;18.50;;;2.80;99.90;;;;;;5027237;28;20028;-82
2021/12/07 07:27:33;;;;;;;22.38;16.80;;;2.70;99.90;;;;;;5026214;28;20029;-82
2021/12/07 07:29:58;;;;;;;30.52;18.77;;;2.70;99.90;;;;;;5037957;28;20040;-81
2021/12/07 07:32:24;;;;;;;30.25;18.38;;;2.80;99.90;;;;;;5045547;28;20052;-83
2021/12/07 07:34:50;;;;;;;28.20;18.90;;;2.80;99.90;;;;;;5057795;28;20056;-84
2021/12/07 07:37:16;;;;;;;31.13;19.23;;;2.80;99.90;;;;;;5072276;28;20033;-84
2021/12/07 07:39:42;;;;;;;27.83;19.30;;;2.80;99.90;;;;;;5054152;28;20040;-85
2021/12/07 07:42:09;;;;;;;26.60;17.65;;;2.70;99.90;;;;;;5050821;28;20079;-82
2021/12/07 07:44:35;;;;;;;26.70;17.65;;;2.80;99.90;;;;;;5034013;28;20022;-85
2021/12/07 07:47:00;;;;;;;24.55;18.10;;;2.80;99.90;;;;;;5053426;28;20059;-84
2021/12/07 07:49:26;;;;;;;24.05;17.00;;;2.80;99.90;;;;;;5040140;28;20040;-83
2021/12/07 07:51:51;;;;;;;27.33;18.40;;;2.80;99.90;;;;;;5034984;28;20030;-83
2021/12/07 07:54:17;;;;;;;31.08;18.23;;;2.90;99.90;;;;;;5038253;28;20067;-82
2021/12/07 07:56:44;;;;;;;27.73;16.50;;;2.90;99.90;;;;;;5055903;28;20033;-83
2021/12/07 07:59:09;;;;;;;28.92;17.48;;;2.80;99.90;;;;;;5041906;28;20153;-83
2021/12/07 08:01:35;;;;;;;27.00;18.42;;;2.90;99.90;;;;;;5025744;28;20073;-83
2021/12/07 08:04:02;;;;;;;27.30;17.67;;;2.80;99.90;;;;;;5019886;28;20034;-82
2021/12/07 08:06:28;;;;;;;24.20;17.15;;;2.90;99.90;;;;;;5047189;28;20022;-84
2021/12/07 08:08:54;;;;;;;24.88;16.80;;;2.90;99.90;;;;;;5039961;28;20048;-82
2021/12/07 08:11:20;;;;;;;27.08;17.35;;;2.90;99.90;;;;;;5040926;28;20151;-82
2021/12/07 08:13:46;;;;;;;28.75;16.92;;;3.00;99.90;;;;;;5036468;28;20512;-82
2021/12/07 08:16:15;;;;;;;25.88;17.95;;;3.00;99.90;;;;;;5027672;28;20033;-81
2021/12/07 08:18:52;;;;;;;25.02;17.30;;;3.00;99.90;;;;;;5032346;28;20124;-84
2021/12/07 08:21:18;;;;;;;26.30;16.27;;;3.00;99.90;;;;;;5051124;28;20025;-84
2021/12/07 08:23:44;;;;;;;25.17;17.27;;;3.00;99.90;;;;;;5052531;28;20045;-83
2021/12/07 08:26:15;;;;;;;24.17;15.93;;;3.10;99.90;;;;;;5041555;28;20056;-83
2021/12/07 08:28:41;;;;;;;28.33;17.52;;;3.10;99.90;;;;;;5049506;28;20334;-84
2021/12/07 08:31:07;;;;;;;31.35;17.10;;;3.10;99.90;;;;;;5049715;28;20076;-84
2021/12/07 08:33:33;;;;;;;24.75;18.10;;;3.20;99.90;;;;;;5035596;28;20036;-85
2021/12/07 08:36:00;;;;;;;28.27;17.15;;;3.20;99.90;;;;;;5040368;28;20033;-86
2021/12/07 08:38:27;;;;;;;26.42;17.05;;;3.20;99.90;;;;;;5044815;28;20025;-84
2021/12/07 08:40:53;;;;;;;23.83;16.50;;;3.20;99.90;;;;;;5061775;28;20051;-85
2021/12/07 08:43:29;;;;;;;23.67;16.33;;;3.20;99.90;;;;;;5043326;28;20025;-83
2021/12/07 08:46:01;;;;;;;26.35;17.80;;;3.30;99.90;;;;;;5024099;28;20032;-85
2021/12/07 08:48:27;;;;;;;26.70;16.52;;;3.40;99.90;;;;;;5058198;28;20032;-85
2021/12/07 08:50:54;;;;;;;25.33;15.82;;;3.40;99.90;;;;;;5045059;28;20041;-85
2021/12/07 08:53:22;;;;;;;26.30;17.65;;;3.50;99.90;;;;;;5044182;28;20021;-83
2021/12/07 09:01:21;;;;;;;28.30;16.80;;;3.60;99.90;;;;;;5072093;28;20119;-80
2021/12/07 09:03:48;;;;;;;27.80;18.35;;;3.70;99.90;;;;;;5025023;28;20147;-82
2021/12/07 09:06:15;;;;;;;28.38;18.40;;;3.80;99.90;;;;;;5027016;28;20396;-80
2021/12/07 09:08:41;;;;;;;27.75;18.10;;;3.80;99.90;;;;;;5060010;28;20028;-83
2021/12/07 09:11:09;;;;;;;26.00;17.98;;;3.80;99.90;;;;;;5042774;28;20040;-78
2021/12/07 09:13:35;;;;;;;31.38;19.08;;;3.90;99.90;;;;;;5025835;28;20033;-81
2021/12/07 09:16:02;;;;;;;27.40;16.75;;;3.90;99.90;;;;;;5059638;28;20037;-82
2021/12/07 09:18:30;;;;;;;24.88;17.33;;;3.90;99.90;;;;;;5043084;28;20071;-83
2021/12/07 09:20:57;;;;;;;26.85;17.38;;;4.00;99.90;;;;;;5072960;28;20033;-85
2021/12/07 09:23:26;;;;;;;28.55;19.63;;;4.10;99.90;;;;;;5055995;28;20090;-83
2021/12/07 09:25:52;;;;;;;30.08;20.48;;;4.10;99.90;;;;;;5051865;28;20060;-84
2021/12/07 09:28:19;;;;;;;31.25;20.63;;;4.10;99.90;;;;;;5031052;28;20094;-85
2021/12/07 09:30:51;;;;;;;30.38;19.33;;;4.10;99.90;;;;;;5042750;28;20029;-83
2021/12/07 09:33:18;;;;;;;27.00;18.10;;;4.10;99.90;;;;;;5044223;28;20037;-86
2021/12/07 09:35:44;;;;;;;27.73;17.67;;;4.10;99.90;;;;;;5044072;28;20021;-83
2021/12/07 09:38:11;;;;;;;26.48;17.23;;;4.20;99.90;;;;;;5041955;28;20155;-85
2021/12/07 09:40:38;;;;;;;25.52;17.45;;;4.40;99.90;;;;;;5047080;28;20025;-83
2021/12/07 09:43:04;;;;;;;25.23;17.63;;;4.70;99.90;;;;;;5062192;28;20029;-83
2021/12/07 09:45:31;;;;;;;26.23;17.67;;;5.00;99.90;;;;;;5041781;28;20167;-85
2021/12/07 09:47:59;;;;;;;26.02;18.92;;;5.00;99.90;;;;;;5060961;28;20041;-83
2021/12/07 09:50:25;;;;;;;27.20;18.15;;;4.90;99.90;;;;;;5061799;28;20087;-83
2021/12/07 09:52:53;;;;;;;25.55;16.10;;;4.90;99.90;;;;;;5060232;28;20082;-83
2021/12/07 09:55:19;;;;;;;25.55;16.65;;;4.90;99.90;;;;;;5037085;28;20066;-83
2021/12/07 09:57:46;;;;;;;30.13;18.23;;;4.90;99.90;;;;;;5022571;28;20108;-82
2021/12/07 10:00:17;;;;;;;29.00;17.55;;;4.80;99.90;;;;;;5020391;28;20504;-83
2021/12/07 10:02:43;;;;;;;24.35;16.95;;;4.80;99.90;;;;;;5044328;28;20045;-83
2021/12/07 10:05:10;;;;;;;22.63;17.25;;;4.80;99.90;;;;;;5057516;28;20029;-83
2021/12/07 10:07:37;;;;;;;24.48;17.05;;;4.80;99.90;;;;;;5042320;28;20420;-81
2021/12/07 10:10:08;;;;;;;23.33;16.20;;;4.90;99.90;;;;;;5043176;28;20036;-81
2021/12/07 10:12:36;;;;;;;30.50;18.25;;;4.90;99.90;;;;;;5025255;28;20049;-82
2021/12/07 10:15:06;;;;;;;22.65;15.45;;;5.00;99.90;;;;;;5025557;28;20041;-84
2021/12/07 10:17:37;;;;;;;23.73;16.65;;;4.90;99.90;;;;;;5026828;28;20505;-83
2021/12/07 10:20:23;;;;;;;25.33;17.33;;;4.80;99.90;;;;;;5022407;28;20059;-81
2021/12/07 10:22:51;;;;;;;23.58;16.13;;;4.80;99.90;;;;;;5035156;28;20037;-82
2021/12/07 10:25:29;;;;;;;24.02;16.67;;;4.90;99.90;;;;;;5024398;28;20029;-81
2021/12/07 10:27:56;;;;;;;26.30;16.60;;;4.90;99.90;;;;;;5024173;28;20033;-81
2021/12/07 10:30:24;;;;;;;24.42;16.13;;;5.00;99.90;;;;;;5037345;28;20041;-80
2021/12/07 10:33:04;;;;;;;21.40;16.40;;;5.00;99.90;;;;;;5041888;28;20141;-82
2021/12/07 10:35:34;;;;;;;22.98;15.93;;;5.10;99.90;;;;;;5036901;28;20075;-80
2021/12/07 10:38:16;;;;;;;29.60;17.17;;;5.10;99.90;;;;;;5037282;28;20489;-79
2021/12/07 10:41:03;;;;;;;25.02;17.15;;;5.20;99.80;;;;;;5042314;28;20045;-78
2021/12/07 10:44:04;;;;;;;20.67;15.43;;;5.10;99.70;;;;;;5044299;28;20030;-81
2021/12/07 10:46:36;;;;;;;24.80;16.30;;;5.20;99.60;;;;;;5046742;28;20037;-79
2021/12/07 10:49:15;;;;;;;20.95;15.77;;;5.20;99.30;;;;;;5047451;28;20064;-80
2021/12/07 10:51:55;;;;;;;21.52;14.70;;;5.10;99.20;;;;;;5041261;28;20118;-80
2021/12/07 10:54:22;;;;;;;21.15;16.20;;;4.90;99.40;;;;;;5037818;28;20071;-81
2021/12/07 10:56:48;;;;;;;26.00;18.23;;;5.00;99.60;;;;;;5043301;28;20064;-83
2021/12/07 10:59:14;;;;;;;23.23;16.05;;;4.90;99.40;;;;;;5043231;28;20033;-80
2021/12/07 11:01:43;;;;;;;24.67;16.17;;;4.80;99.70;;;;;;5042789;28;20038;-80
2021/12/07 11:04:33;;;;;;;23.52;16.30;;;5.00;99.70;;;;;;5041665;28;20042;-81
2021/12/07 11:07:16;;;;;;;25.10;15.75;;;4.90;99.30;;;;;;5037563;28;20036;-81
2021/12/07 11:10:13;;;;;;;23.30;16.90;;;5.00;99.70;;;;;;5040116;28;20037;-81
2021/12/07 11:13:13;;;;;;;22.42;15.13;;;5.10;99.70;;;;;;5026829;28;20038;-79
2021/12/07 11:15:55;;;;;;;22.92;15.55;;;5.30;99.90;;;;;;5041634;28;20059;-81
2021/12/07 11:18:28;;;;;;;22.77;15.55;;;5.60;99.80;;;;;;5039767;28;20045;-85
2021/12/07 11:20:57;;;;;;;20.73;15.15;;;5.80;99.00;;;;;;5040335;28;20028;-84
2021/12/07 11:23:34;;;;;;;18.95;14.55;;;5.90;98.70;;;;;;5023126;28;20029;-84
2021/12/07 11:31:38;;;;;;;55.42;20.90;;;5.50;98.90;;;;;;5056793;28;20033;-82
2021/12/07 11:34:06;;;;;;;82.53;25.90;;;5.50;98.90;;;;;;5039797;28;20087;-83
2021/12/07 11:36:35;;;;;;;25.27;15.40;;;5.40;99.00;;;;;;5036324;28;20060;-84
2021/12/07 11:39:02;;;;;;;23.23;16.27;;;5.20;99.20;;;;;;5019209;28;20053;-83
2021/12/07 11:41:34;;;;;;;38.53;17.55;;;5.20;99.50;;;;;;5033194;28;20041;-82
2021/12/07 11:44:06;;;;;;;41.45;19.42;;;5.20;99.50;;;;;;5047976;28;20040;-83
2021/12/07 11:46:34;;;;;;;53.80;23.33;;;5.20;99.90;;;;;;5029349;28;20022;-82
2021/12/07 11:49:13;;;;;;;22.90;13.57;;;5.30;99.70;;;;;;5031701;28;20397;-82
2021/12/07 11:51:40;;;;;;;18.20;13.73;;;5.40;99.30;;;;;;5046795;28;20060;-83
2021/12/07 11:54:06;;;;;;;17.58;12.88;;;5.30;99.10;;;;;;5029148;28;20537;-83
2021/12/07 11:56:34;;;;;;;22.83;14.75;;;5.30;99.20;;;;;;5031288;28;20036;-84
2021/12/07 11:59:00;;;;;;;45.00;18.25;;;5.30;99.30;;;;;;5030180;28;20036;-82
2021/12/07 12:01:26;;;;;;;22.30;16.13;;;5.30;99.30;;;;;;5044370;28;20024;-84
2021/12/07 12:03:54;;;;;;;32.83;17.90;;;5.20;99.60;;;;;;5048987;28;20044;-84
2021/12/07 12:06:22;;;;;;;21.80;15.10;;;5.10;99.90;;;;;;5044957;28;20026;-85
2021/12/07 12:08:50;;;;;;;29.27;16.77;;;5.00;99.90;;;;;;5039204;28;20045;-83
2021/12/07 12:11:27;;;;;;;50.97;19.02;;;5.10;99.90;;;;;;5049603;28;20079;-84
2021/12/07 12:14:26;;;;;;;24.08;16.48;;;5.10;99.90;;;;;;5046755;28;20029;-85
2021/12/07 12:16:58;;;;;;;22.27;15.18;;;5.10;99.90;;;;;;5048211;28;20040;-86
2021/12/07 12:19:57;;;;;;;21.63;15.75;;;5.00;99.90;;;;;;5038183;28;20037;-84
2021/12/07 12:22:45;;;;;;;19.60;13.77;;;4.90;99.90;;;;;;5039433;28;20029;-85
2021/12/07 12:25:14;;;;;;;15.77;12.65;;;4.90;99.90;;;;;;5050813;28;20013;-85
2021/12/07 12:27:41;;;;;;;15.27;11.32;;;4.80;99.90;;;;;;5054555;28;20496;-84
2021/12/07 12:30:33;;;;;;;16.95;13.05;;;4.60;99.90;;;;;;5041247;28;20021;-83
2021/12/07 12:33:02;;;;;;;15.55;11.75;;;4.70;99.90;;;;;;5047824;28;20128;-82
2021/12/07 12:35:30;;;;;;;14.88;11.85;;;4.60;99.90;;;;;;5041666;28;20246;-84
2021/12/07 12:37:57;;;;;;;18.83;13.57;;;4.60;99.90;;;;;;5045498;28;20021;-85
2021/12/07 12:40:31;;;;;;;25.05;16.45;;;4.70;99.90;;;;;;5038198;28;20523;-82
2021/12/07 12:42:57;;;;;;;16.10;12.82;;;4.70;99.90;;;;;;5027758;28;20045;-84
2021/12/07 12:45:32;;;;;;;17.35;13.00;;;4.70;99.90;;;;;;5027685;28;20037;-85
2021/12/07 12:48:03;;;;;;;14.90;11.80;;;4.70;99.90;;;;;;5015070;28;20069;-82
2021/12/07 12:50:51;;;;;;;19.08;13.02;;;4.80;99.90;;;;;;5047150;28;20097;-82
2021/12/07 12:53:26;;;;;;;16.67;12.80;;;4.70;99.90;;;;;;5048283;28;20029;-81
2021/12/07 12:55:58;;;;;;;19.95;12.88;;;4.80;99.90;;;;;;5050607;28;20060;-82
2021/12/07 12:58:34;;;;;;;17.38;12.07;;;5.00;99.90;;;;;;5050267;28;20032;-83
2021/12/07 13:01:07;;;;;;;15.18;12.05;;;4.90;99.90;;;;;;5050842;28;20025;-83
2021/12/07 13:03:52;;;;;;;17.00;12.63;;;4.90;99.90;;;;;;5048605;28;20124;-83
2021/12/07 13:06:44;;;;;;;15.55;12.32;;;5.00;99.90;;;;;;5064611;28;20033;-82
2021/12/07 13:09:18;;;;;;;16.58;11.68;;;4.70;99.90;;;;;;5039314;28;20103;-83
2021/12/07 13:11:57;;;;;;;15.32;11.18;;;4.90;99.90;;;;;;5046163;28;20035;-82
2021/12/07 13:14:23;;;;;;;14.20;11.00;;;4.90;99.90;;;;;;5044139;28;20041;-82
2021/12/07 13:17:02;;;;;;;16.33;11.77;;;4.90;99.90;;;;;;5066556;28;20036;-82
2021/12/07 13:19:28;;;;;;;14.73;11.07;;;4.90;99.90;;;;;;5044235;28;20060;-81
2021/12/07 13:21:56;;;;;;;19.42;11.70;;;4.80;99.90;;;;;;5052536;28;20080;-82
2021/12/07 13:24:34;;;;;;;16.52;11.45;;;4.80;99.90;;;;;;5028655;28;20049;-83
2021/12/07 13:27:10;;;;;;;57.58;17.45;;;4.90;99.90;;;;;;5045954;28;20029;-83
2021/12/07 13:29:43;;;;;;;17.88;11.52;;;4.90;99.90;;;;;;5064435;28;20049;-82
2021/12/07 13:32:10;;;;;;;17.15;12.13;;;4.90;99.90;;;;;;5063775;28;20029;-85
2021/12/07 13:34:38;;;;;;;18.65;11.45;;;4.80;99.90;;;;;;5045188;28;20064;-84
2021/12/07 13:37:12;;;;;;;15.80;11.27;;;4.90;99.90;;;;;;5026255;28;20033;-84
2021/12/07 13:39:41;;;;;;;13.82;11.25;;;5.00;99.90;;;;;;5014614;28;20040;-84
2021/12/07 13:42:18;;;;;;;14.70;11.15;;;4.80;99.90;;;;;;5028077;28;20186;-84
2021/12/07 13:44:48;;;;;;;14.82;11.27;;;4.70;99.90;;;;;;5044622;28;20076;-84
2021/12/07 13:47:18;;;;;;;13.60;11.00;;;4.70;99.90;;;;;;5042388;28;20024;-84
2021/12/07 13:49:49;;;;;;;14.30;11.25;;;4.70;99.90;;;;;;5043035;28;20111;-83
2021/12/07 13:52:19;;;;;;;17.45;12.60;;;4.70;99.90;;;;;;5028319;28;20040;-83
2021/12/07 13:54:48;;;;;;;17.55;12.43;;;4.70;99.90;;;;;;5043287;28;20067;-84
2021/12/07 13:57:20;;;;;;;16.17;12.50;;;4.80;99.90;;;;;;5025993;28;20033;-83
2021/12/07 14:00:01;;;;;;;15.82;12.23;;;4.90;99.90;;;;;;5043078;28;20025;-85
2021/12/07 14:02:27;;;;;;;16.52;12.38;;;4.90;99.90;;;;;;5043102;28;20037;-82
2021/12/07 14:05:17;;;;;;;15.25;11.88;;;4.90;99.90;;;;;;5045760;28;20025;-83
2021/12/07 14:07:46;;;;;;;18.15;12.50;;;4.90;99.90;;;;;;5027442;28;20029;-82
2021/12/07 14:10:21;;;;;;;16.58;11.73;;;4.90;99.90;;;;;;5059047;28;20097;-82
2021/12/07 14:12:49;;;;;;;14.35;11.10;;;5.00;99.90;;;;;;5026130;28;20090;-83
2021/12/07 14:15:22;;;;;;;21.73;12.18;;;4.90;99.90;;;;;;5043154;28;20061;-84
2021/12/07 14:17:56;;;;;;;22.55;13.20;;;4.80;99.90;;;;;;5027164;28;20105;-83
2021/12/07 14:20:28;;;;;;;39.10;15.00;;;4.80;99.90;;;;;;5042470;28;20032;-84
2021/12/07 14:23:31;;;;;;;13.63;11.18;;;4.80;99.90;;;;;;5021913;28;20231;-82
2021/12/07 14:26:13;;;;;;;16.02;11.60;;;4.70;99.90;;;;;;5041774;28;20064;-83
2021/12/07 14:28:54;;;;;;;17.55;11.68;;;4.60;99.90;;;;;;5058147;28;20033;-85